sensor_id;sensor_type;location;lat;lon;timestamp;temperature;humidity
25933;DHT22;13731;51.166;4.474;2023-02-01T00:02:02;6.70;1.00
25933;DHT22;13731;51.166;4.474;2023-02-01T00:04:28;6.70;1.00
25933;DHT22;13731;51.166;4.474;2023-02-01T00:06:54;6.70;1.00
25933;DHT22;13731;51.166;4.474;2023-02-01T00:09:20;6.70;1.00
25933;DHT22;13731;51.166;4.474;2023-02-01T00:11:46;6.70;1.00
25933;DHT22;13731;51.166;4.474;2023-02-01T00:14:11;6.80;1.00
25933;DHT22;13731;51.166;4.474;2023-02-01T00:16:37;6.80;1.00
25933;DHT22;13731;51.166;4.474;2023-02-01T00:19:11;6.90;1.00
25933;DHT22;13731;51.166;4.474;2023-02-01T00:21:38;6.90;99.90
25933;DHT22;13731;51.166;4.474;2023-02-01T00:24:04;6.90;99.90
25933;DHT22;13731;51.166;4.474;2023-02-01T00:26:41;6.90;99.90
25933;DHT22;13731;51.166;4.474;2023-02-01T00:29:19;6.80;99.90
25933;DHT22;13731;51.166;4.474;2023-02-01T00:31:45;6.70;1.00
25933;DHT22;13731;51.166;4.474;2023-02-01T00:34:13;6.80;99.90
25933;DHT22;13731;51.166;4.474;2023-02-01T00:36:40;6.70;1.00
25933;DHT22;13731;51.166;4.474;2023-02-01T00:39:06;6.70;1.00
25933;DHT22;13731;51.166;4.474;2023-02-01T00:41:32;6.70;1.00
25933;DHT22;13731;51.166;4.474;2023-02-01T00:43:58;6.60;1.00
25933;DHT22;13731;51.166;4.474;2023-02-01T00:46:24;6.50;2.90
25933;DHT22;13731;51.166;4.474;2023-02-01T00:48:50;6.40;73.30
25933;DHT22;13731;51.166;4.474;2023-02-01T00:51:22;6.20;99.90
25933;DHT22;13731;51.166;4.474;2023-02-01T00:53:48;6.20;99.90
25933;DHT22;13731;51.166;4.474;2023-02-01T00:56:14;6.20;99.90
25933;DHT22;13731;51.166;4.474;2023-02-01T00:58:40;6.20;99.90
25933;DHT22;13731;51.166;4.474;2023-02-01T01:01:24;6.20;99.90
25933;DHT22;13731;51.166;4.474;2023-02-01T01:03:53;6.30;99.90
25933;DHT22;13731;51.166;4.474;2023-02-01T01:06:22;6.20;99.90
25933;DHT22;13731;51.166;4.474;2023-02-01T01:08:50;6.20;99.90
25933;DHT22;13731;51.166;4.474;2023-02-01T01:11:22;6.30;1.00
25933;DHT22;13731;51.166;4.474;2023-02-01T01:13:50;6.30;1.00
25933;DHT22;13731;51.166;4.474;2023-02-01T01:16:17;6.30;1.00
25933;DHT22;13731;51.166;4.474;2023-02-01T01:18:43;6.20;1.00
25933;DHT22;13731;51.166;4.474;2023-02-01T01:21:11;6.30;99.90
25933;DHT22;13731;51.166;4.474;2023-02-01T01:23:37;6.30;99.90
25933;DHT22;13731;51.166;4.474;2023-02-01T01:26:08;6.40;1.00
25933;DHT22;13731;51.166;4.474;2023-02-01T01:28:35;6.50;99.90
25933;DHT22;13731;51.166;4.474;2023-02-01T01:31:01;6.40;99.90
25933;DHT22;13731;51.166;4.474;2023-02-01T01:33:27;6.30;99.90
25933;DHT22;13731;51.166;4.474;2023-02-01T01:35:53;6.20;99.90
25933;DHT22;13731;51.166;4.474;2023-02-01T01:38:19;6.20;99.90
25933;DHT22;13731;51.166;4.474;2023-02-01T01:40:46;6.20;99.90
25933;DHT22;13731;51.166;4.474;2023-02-01T01:43:17;6.30;99.90
25933;DHT22;13731;51.166;4.474;2023-02-01T01:45:43;6.20;16.10
25933;DHT22;13731;51.166;4.474;2023-02-01T01:48:16;6.10;9.00
25933;DHT22;13731;51.166;4.474;2023-02-01T01:50:47;6.10;1.00
25933;DHT22;13731;51.166;4.474;2023-02-01T01:53:22;6.10;1.00
25933;DHT22;13731;51.166;4.474;2023-02-01T01:55:50;6.10;1.00
25933;DHT22;13731;51.166;4.474;2023-02-01T01:58:21;6.20;99.90
25933;DHT22;13731;51.166;4.474;2023-02-01T02:00:48;6.20;99.90
25933;DHT22;13731;51.166;4.474;2023-02-01T02:03:23;6.20;99.90
25933;DHT22;13731;51.166;4.474;2023-02-01T02:05:53;6.20;99.90
25933;DHT22;13731;51.166;4.474;2023-02-01T02:08:20;6.10;99.90
25933;DHT22;13731;51.166;4.474;2023-02-01T02:10:48;6.20;1.00
25933;DHT22;13731;51.166;4.474;2023-02-01T02:13:34;6.10;1.00
25933;DHT22;13731;51.166;4.474;2023-02-01T02:35:46;6.00;1.00
25933;DHT22;13731;51.166;4.474;2023-02-01T02:42:11;6.00;1.00
25933;DHT22;13731;51.166;4.474;2023-02-01T02:44:57;6.00;1.00
25933;DHT22;13731;51.166;4.474;2023-02-01T02:47:57;6.00;1.00
25933;DHT22;13731;51.166;4.474;2023-02-01T02:50:34;6.00;99.90
25933;DHT22;13731;51.166;4.474;2023-02-01T02:53:35;5.90;1.00
25933;DHT22;13731;51.166;4.474;2023-02-01T02:56:23;5.90;1.00
25933;DHT22;13731;51.166;4.474;2023-02-01T02:59:11;5.90;1.00
25933;DHT22;13731;51.166;4.474;2023-02-01T03:01:56;6.00;99.90
25933;DHT22;13731;51.166;4.474;2023-02-01T03:04:42;6.10;99.90
25933;DHT22;13731;51.166;4.474;2023-02-01T03:07:13;6.00;99.90
25933;DHT22;13731;51.166;4.474;2023-02-01T03:09:40;5.80;99.90
25933;DHT22;13731;51.166;4.474;2023-02-01T03:12:11;5.80;1.00
25933;DHT22;13731;51.166;4.474;2023-02-01T03:15:05;5.80;1.00
25933;DHT22;13731;51.166;4.474;2023-02-01T03:17:38;5.90;1.00
25933;DHT22;13731;51.166;4.474;2023-02-01T03:20:09;6.00;99.90
25933;DHT22;13731;51.166;4.474;2023-02-01T03:22:40;6.00;99.90
25933;DHT22;13731;51.166;4.474;2023-02-01T03:25:18;6.00;99.90
25933;DHT22;13731;51.166;4.474;2023-02-01T03:27:57;5.90;99.90
25933;DHT22;13731;51.166;4.474;2023-02-01T03:30:29;5.90;99.90
25933;DHT22;13731;51.166;4.474;2023-02-01T03:32:59;5.90;99.90
25933;DHT22;13731;51.166;4.474;2023-02-01T03:44:51;5.80;1.00
25933;DHT22;13731;51.166;4.474;2023-02-01T03:46:58;5.80;1.00
25933;DHT22;13731;51.166;4.474;2023-02-01T03:51:58;5.60;36.80
25933;DHT22;13731;51.166;4.474;2023-02-01T03:54:28;5.60;99.90
25933;DHT22;13731;51.166;4.474;2023-02-01T03:56:56;5.60;99.90
25933;DHT22;13731;51.166;4.474;2023-02-01T03:59:24;5.60;99.90
25933;DHT22;13731;51.166;4.474;2023-02-01T04:01:51;5.60;99.90
25933;DHT22;13731;51.166;4.474;2023-02-01T04:04:18;5.60;99.90
25933;DHT22;13731;51.166;4.474;2023-02-01T04:06:51;5.70;99.90
25933;DHT22;13731;51.166;4.474;2023-02-01T04:09:17;5.70;99.90
25933;DHT22;13731;51.166;4.474;2023-02-01T04:11:43;5.70;99.90
25933;DHT22;13731;51.166;4.474;2023-02-01T04:14:09;5.70;99.90
25933;DHT22;13731;51.166;4.474;2023-02-01T04:16:35;5.90;53.80
25933;DHT22;13731;51.166;4.474;2023-02-01T04:19:04;5.80;1.00
25933;DHT22;13731;51.166;4.474;2023-02-01T04:21:30;5.80;99.90
25933;DHT22;13731;51.166;4.474;2023-02-01T04:23:56;5.80;99.90
25933;DHT22;13731;51.166;4.474;2023-02-01T04:26:22;5.80;71.60
25933;DHT22;13731;51.166;4.474;2023-02-01T04:28:47;5.70;99.90
25933;DHT22;13731;51.166;4.474;2023-02-01T04:31:15;5.70;99.90
25933;DHT22;13731;51.166;4.474;2023-02-01T04:33:41;5.70;99.90
25933;DHT22;13731;51.166;4.474;2023-02-01T04:36:07;5.70;99.90
25933;DHT22;13731;51.166;4.474;2023-02-01T04:38:33;5.80;99.90
25933;DHT22;13731;51.166;4.474;2023-02-01T04:40:59;5.80;99.90
25933;DHT22;13731;51.166;4.474;2023-02-01T04:43:26;5.80;99.90
25933;DHT22;13731;51.166;4.474;2023-02-01T04:45:52;5.70;99.90
25933;DHT22;13731;51.166;4.474;2023-02-01T04:48:20;5.60;1.00
25933;DHT22;13731;51.166;4.474;2023-02-01T04:50:47;5.70;99.90
25933;DHT22;13731;51.166;4.474;2023-02-01T04:53:17;5.70;99.90
25933;DHT22;13731;51.166;4.474;2023-02-01T04:55:43;5.60;1.00
25933;DHT22;13731;51.166;4.474;2023-02-01T04:58:09;5.60;1.00
25933;DHT22;13731;51.166;4.474;2023-02-01T05:00:36;5.80;99.90
25933;DHT22;13731;51.166;4.474;2023-02-01T05:03:03;5.80;99.90
25933;DHT22;13731;51.166;4.474;2023-02-01T05:05:29;5.80;99.90
25933;DHT22;13731;51.166;4.474;2023-02-01T05:07:55;5.60;1.00
25933;DHT22;13731;51.166;4.474;2023-02-01T05:10:21;5.70;1.00
25933;DHT22;13731;51.166;4.474;2023-02-01T05:12:47;5.60;1.00
25933;DHT22;13731;51.166;4.474;2023-02-01T05:15:32;5.60;1.00
25933;DHT22;13731;51.166;4.474;2023-02-01T05:17:58;5.60;1.00
25933;DHT22;13731;51.166;4.474;2023-02-01T05:20:24;5.60;1.00
25933;DHT22;13731;51.166;4.474;2023-02-01T05:22:50;5.60;1.00
25933;DHT22;13731;51.166;4.474;2023-02-01T05:25:17;5.60;46.00
25933;DHT22;13731;51.166;4.474;2023-02-01T05:27:43;5.60;24.70
25933;DHT22;13731;51.166;4.474;2023-02-01T05:30:09;5.60;1.00
25933;DHT22;13731;51.166;4.474;2023-02-01T05:32:38;5.50;88.70
25933;DHT22;13731;51.166;4.474;2023-02-01T05:35:04;5.50;99.90
25933;DHT22;13731;51.166;4.474;2023-02-01T05:37:30;5.50;99.90
25933;DHT22;13731;51.166;4.474;2023-02-01T05:39:56;5.50;99.90
25933;DHT22;13731;51.166;4.474;2023-02-01T05:42:22;5.40;99.90
25933;DHT22;13731;51.166;4.474;2023-02-01T05:44:47;5.40;99.90
25933;DHT22;13731;51.166;4.474;2023-02-01T05:47:13;5.50;99.90
25933;DHT22;13731;51.166;4.474;2023-02-01T05:49:39;5.50;99.90
25933;DHT22;13731;51.166;4.474;2023-02-01T05:52:05;5.60;99.90
25933;DHT22;13731;51.166;4.474;2023-02-01T05:54:31;5.60;99.90
25933;DHT22;13731;51.166;4.474;2023-02-01T05:56:57;5.50;99.90
25933;DHT22;13731;51.166;4.474;2023-02-01T05:59:22;5.50;99.90
25933;DHT22;13731;51.166;4.474;2023-02-01T06:01:48;5.60;99.90
25933;DHT22;13731;51.166;4.474;2023-02-01T06:04:14;5.50;99.90
25933;DHT22;13731;51.166;4.474;2023-02-01T06:06:40;5.50;99.90
25933;DHT22;13731;51.166;4.474;2023-02-01T06:09:06;5.60;57.00
25933;DHT22;13731;51.166;4.474;2023-02-01T06:11:32;5.60;1.00
25933;DHT22;13731;51.166;4.474;2023-02-01T06:13:58;5.60;1.00
25933;DHT22;13731;51.166;4.474;2023-02-01T06:16:24;5.60;36.30
25933;DHT22;13731;51.166;4.474;2023-02-01T06:18:51;5.50;33.80
25933;DHT22;13731;51.166;4.474;2023-02-01T06:21:17;5.50;99.90
25933;DHT22;13731;51.166;4.474;2023-02-01T06:23:55;5.40;99.90
25933;DHT22;13731;51.166;4.474;2023-02-01T06:26:23;5.50;99.90
25933;DHT22;13731;51.166;4.474;2023-02-01T06:28:49;5.60;30.00
25933;DHT22;13731;51.166;4.474;2023-02-01T06:31:15;5.60;1.00
25933;DHT22;13731;51.166;4.474;2023-02-01T06:33:43;5.50;27.70
25933;DHT22;13731;51.166;4.474;2023-02-01T06:36:11;5.60;1.00
25933;DHT22;13731;51.166;4.474;2023-02-01T06:38:41;5.50;18.80
25933;DHT22;13731;51.166;4.474;2023-02-01T06:41:08;5.50;99.90
25933;DHT22;13731;51.166;4.474;2023-02-01T06:43:34;5.50;54.00
25933;DHT22;13731;51.166;4.474;2023-02-01T06:46:05;5.40;99.90
25933;DHT22;13731;51.166;4.474;2023-02-01T06:48:32;5.50;99.90
25933;DHT22;13731;51.166;4.474;2023-02-01T06:50:58;5.40;99.90
25933;DHT22;13731;51.166;4.474;2023-02-01T06:53:24;5.40;99.90
25933;DHT22;13731;51.166;4.474;2023-02-01T06:56:01;5.40;99.90
25933;DHT22;13731;51.166;4.474;2023-02-01T06:58:30;5.40;99.90
25933;DHT22;13731;51.166;4.474;2023-02-01T07:00:57;5.30;99.90
25933;DHT22;13731;51.166;4.474;2023-02-01T07:03:23;5.30;1.00
25933;DHT22;13731;51.166;4.474;2023-02-01T07:05:49;5.30;1.00
25933;DHT22;13731;51.166;4.474;2023-02-01T07:08:15;5.30;1.00
25933;DHT22;13731;51.166;4.474;2023-02-01T07:10:41;5.40;99.90
25933;DHT22;13731;51.166;4.474;2023-02-01T07:13:07;5.40;99.90
25933;DHT22;13731;51.166;4.474;2023-02-01T07:15:33;5.40;99.90
25933;DHT22;13731;51.166;4.474;2023-02-01T07:17:59;5.40;99.90
25933;DHT22;13731;51.166;4.474;2023-02-01T07:20:25;5.40;99.90
25933;DHT22;13731;51.166;4.474;2023-02-01T07:22:55;5.40;99.90
25933;DHT22;13731;51.166;4.474;2023-02-01T07:25:22;5.40;99.90
25933;DHT22;13731;51.166;4.474;2023-02-01T07:27:48;5.50;99.90
25933;DHT22;13731;51.166;4.474;2023-02-01T07:30:14;5.50;99.90
25933;DHT22;13731;51.166;4.474;2023-02-01T07:32:40;5.30;1.00
25933;DHT22;13731;51.166;4.474;2023-02-01T07:35:06;5.20;1.00
25933;DHT22;13731;51.166;4.474;2023-02-01T07:37:32;5.20;1.00
25933;DHT22;13731;51.166;4.474;2023-02-01T07:39:58;5.20;1.00
25933;DHT22;13731;51.166;4.474;2023-02-01T07:42:24;5.30;1.00
25933;DHT22;13731;51.166;4.474;2023-02-01T07:44:50;5.30;1.00
25933;DHT22;13731;51.166;4.474;2023-02-01T07:47:15;5.30;1.00
25933;DHT22;13731;51.166;4.474;2023-02-01T07:49:41;5.50;99.90
25933;DHT22;13731;51.166;4.474;2023-02-01T07:52:07;5.40;1.00
25933;DHT22;13731;51.166;4.474;2023-02-01T07:54:33;5.70;99.90
25933;DHT22;13731;51.166;4.474;2023-02-01T07:56:58;5.70;1.00
25933;DHT22;13731;51.166;4.474;2023-02-01T07:59:24;5.60;99.90
25933;DHT22;13731;51.166;4.474;2023-02-01T08:01:50;5.80;99.90
25933;DHT22;13731;51.166;4.474;2023-02-01T08:04:16;5.70;99.90
25933;DHT22;13731;51.166;4.474;2023-02-01T08:06:42;5.80;99.90
25933;DHT22;13731;51.166;4.474;2023-02-01T08:09:08;6.00;1.00
25933;DHT22;13731;51.166;4.474;2023-02-01T08:11:36;6.00;99.90
25933;DHT22;13731;51.166;4.474;2023-02-01T08:14:04;6.00;1.00
25933;DHT22;13731;51.166;4.474;2023-02-01T08:16:30;6.10;1.00
25933;DHT22;13731;51.166;4.474;2023-02-01T08:18:56;6.00;1.00
25933;DHT22;13731;51.166;4.474;2023-02-01T08:21:27;6.10;99.90
25933;DHT22;13731;51.166;4.474;2023-02-01T08:24:03;6.20;99.90
25933;DHT22;13731;51.166;4.474;2023-02-01T08:26:29;6.10;99.90
25933;DHT22;13731;51.166;4.474;2023-02-01T08:28:58;6.00;1.00
25933;DHT22;13731;51.166;4.474;2023-02-01T08:31:27;6.00;1.00
25933;DHT22;13731;51.166;4.474;2023-02-01T08:33:55;6.00;1.00
25933;DHT22;13731;51.166;4.474;2023-02-01T08:36:22;6.10;99.90
25933;DHT22;13731;51.166;4.474;2023-02-01T08:38:48;6.20;99.90
25933;DHT22;13731;51.166;4.474;2023-02-01T08:41:17;6.10;99.90
25933;DHT22;13731;51.166;4.474;2023-02-01T08:43:43;6.20;1.00
25933;DHT22;13731;51.166;4.474;2023-02-01T08:46:10;6.20;99.90
25933;DHT22;13731;51.166;4.474;2023-02-01T08:48:37;6.30;99.90
25933;DHT22;13731;51.166;4.474;2023-02-01T08:51:06;6.50;99.90
25933;DHT22;13731;51.166;4.474;2023-02-01T08:53:32;6.70;1.00
25933;DHT22;13731;51.166;4.474;2023-02-01T08:55:58;6.70;1.00
25933;DHT22;13731;51.166;4.474;2023-02-01T08:58:24;6.70;99.90
25933;DHT22;13731;51.166;4.474;2023-02-01T09:00:50;6.80;99.90
25933;DHT22;13731;51.166;4.474;2023-02-01T09:03:16;6.90;99.90
25933;DHT22;13731;51.166;4.474;2023-02-01T09:05:43;6.80;99.90
25933;DHT22;13731;51.166;4.474;2023-02-01T09:08:08;6.90;99.90
25933;DHT22;13731;51.166;4.474;2023-02-01T09:10:36;6.90;99.90
25933;DHT22;13731;51.166;4.474;2023-02-01T09:13:01;7.00;60.60
25933;DHT22;13731;51.166;4.474;2023-02-01T09:15:28;7.00;1.00
25933;DHT22;13731;51.166;4.474;2023-02-01T09:17:54;6.90;1.00
25933;DHT22;13731;51.166;4.474;2023-02-01T09:20:20;7.10;1.00
25933;DHT22;13731;51.166;4.474;2023-02-01T09:22:52;7.10;1.00
25933;DHT22;13731;51.166;4.474;2023-02-01T09:25:18;7.20;1.00
25933;DHT22;13731;51.166;4.474;2023-02-01T09:27:44;7.20;1.00
25933;DHT22;13731;51.166;4.474;2023-02-01T09:30:10;7.20;1.00
25933;DHT22;13731;51.166;4.474;2023-02-01T09:32:36;7.30;99.90
25933;DHT22;13731;51.166;4.474;2023-02-01T09:35:02;7.30;99.90
25933;DHT22;13731;51.166;4.474;2023-02-01T09:37:28;7.30;99.90
25933;DHT22;13731;51.166;4.474;2023-02-01T09:39:54;7.40;99.90
25933;DHT22;13731;51.166;4.474;2023-02-01T09:48:03;7.50;91.10
25933;DHT22;13731;51.166;4.474;2023-02-01T09:50:34;7.70;1.00
25933;DHT22;13731;51.166;4.474;2023-02-01T09:53:38;7.60;1.00
25933;DHT22;13731;51.166;4.474;2023-02-01T09:56:14;7.60;1.00
25933;DHT22;13731;51.166;4.474;2023-02-01T09:59:15;7.80;99.90
25933;DHT22;13731;51.166;4.474;2023-02-01T10:01:44;7.90;99.90
25933;DHT22;13731;51.166;4.474;2023-02-01T10:04:12;8.00;99.90
25933;DHT22;13731;51.166;4.474;2023-02-01T10:18:27;8.40;21.00
25933;DHT22;13731;51.166;4.474;2023-02-01T10:27:37;10.00;99.90
25933;DHT22;13731;51.166;4.474;2023-02-01T10:30:31;10.40;6.00
25933;DHT22;13731;51.166;4.474;2023-02-01T10:33:26;10.90;1.00
25933;DHT22;13731;51.166;4.474;2023-02-01T10:38:33;11.90;99.90
25933;DHT22;13731;51.166;4.474;2023-02-01T10:41:08;12.30;99.90
25933;DHT22;13731;51.166;4.474;2023-02-01T10:43:37;12.40;99.90
25933;DHT22;13731;51.166;4.474;2023-02-01T10:46:06;12.40;99.90
25933;DHT22;13731;51.166;4.474;2023-02-01T10:48:32;12.30;99.90
25933;DHT22;13731;51.166;4.474;2023-02-01T10:51:21;11.90;99.90
25933;DHT22;13731;51.166;4.474;2023-02-01T10:53:59;11.80;99.90
25933;DHT22;13731;51.166;4.474;2023-02-01T10:56:27;12.10;99.90
25933;DHT22;13731;51.166;4.474;2023-02-01T10:59:01;11.70;99.90
25933;DHT22;13731;51.166;4.474;2023-02-01T11:01:33;11.50;99.90
25933;DHT22;13731;51.166;4.474;2023-02-01T11:04:02;11.60;99.90
25933;DHT22;13731;51.166;4.474;2023-02-01T11:06:38;11.40;99.90
25933;DHT22;13731;51.166;4.474;2023-02-01T11:11:53;10.60;1.00
25933;DHT22;13731;51.166;4.474;2023-02-01T11:14:37;11.00;1.00
25933;DHT22;13731;51.166;4.474;2023-02-01T11:17:22;11.00;1.00
25933;DHT22;13731;51.166;4.474;2023-02-01T11:19:58;10.80;1.00
25933;DHT22;13731;51.166;4.474;2023-02-01T11:22:25;10.50;99.90
25933;DHT22;13731;51.166;4.474;2023-02-01T11:24:53;10.60;99.90
25933;DHT22;13731;51.166;4.474;2023-02-01T11:27:22;10.70;99.90
25933;DHT22;13731;51.166;4.474;2023-02-01T11:29:52;10.90;53.90
25933;DHT22;13731;51.166;4.474;2023-02-01T11:32:23;10.80;37.20
25933;DHT22;13731;51.166;4.474;2023-02-01T11:34:57;10.80;76.00
25933;DHT22;13731;51.166;4.474;2023-02-01T11:37:33;10.60;99.90
25933;DHT22;13731;51.166;4.474;2023-02-01T11:40:23;10.60;99.90
25933;DHT22;13731;51.166;4.474;2023-02-01T11:42:59;10.50;99.90
25933;DHT22;13731;51.166;4.474;2023-02-01T11:45:30;10.30;99.90
25933;DHT22;13731;51.166;4.474;2023-02-01T11:47:58;10.20;99.90
25933;DHT22;13731;51.166;4.474;2023-02-01T12:04:18;10.20;99.90
25933;DHT22;13731;51.166;4.474;2023-02-01T12:07:11;10.00;99.90
25933;DHT22;13731;51.166;4.474;2023-02-01T12:12:43;10.90;46.10
25933;DHT22;13731;51.166;4.474;2023-02-01T12:21:28;10.50;99.90
25933;DHT22;13731;51.166;4.474;2023-02-01T12:24:33;10.50;99.90
25933;DHT22;13731;51.166;4.474;2023-02-01T12:27:39;10.60;99.90
25933;DHT22;13731;51.166;4.474;2023-02-01T12:33:25;10.40;99.90
25933;DHT22;13731;51.166;4.474;2023-02-01T12:36:18;10.40;1.00
25933;DHT22;13731;51.166;4.474;2023-02-01T12:38:55;10.30;1.00
25933;DHT22;13731;51.166;4.474;2023-02-01T12:44:32;10.20;10.00
25933;DHT22;13731;51.166;4.474;2023-02-01T12:47:09;10.30;18.20
25933;DHT22;13731;51.166;4.474;2023-02-01T12:52:15;10.30;1.00
25933;DHT22;13731;51.166;4.474;2023-02-01T12:54:59;10.30;2.30
25933;DHT22;13731;51.166;4.474;2023-02-01T12:57:31;10.20;23.20
25933;DHT22;13731;51.166;4.474;2023-02-01T13:00:13;10.30;21.20
25933;DHT22;13731;51.166;4.474;2023-02-01T13:02:52;10.30;17.10
25933;DHT22;13731;51.166;4.474;2023-02-01T13:05:55;10.30;18.30
25933;DHT22;13731;51.166;4.474;2023-02-01T13:11:34;10.60;25.30
25933;DHT22;13731;51.166;4.474;2023-02-01T13:16:47;10.60;28.40
25933;DHT22;13731;51.166;4.474;2023-02-01T13:21:43;10.40;66.90
25933;DHT22;13731;51.166;4.474;2023-02-01T13:24:24;10.50;79.90
25933;DHT22;13731;51.166;4.474;2023-02-01T13:26:55;10.40;57.80
25933;DHT22;13731;51.166;4.474;2023-02-01T13:29:22;10.40;99.90
25933;DHT22;13731;51.166;4.474;2023-02-01T13:32:10;10.40;95.20
25933;DHT22;13731;51.166;4.474;2023-02-01T13:43:13;10.20;99.90
25933;DHT22;13731;51.166;4.474;2023-02-01T13:45:51;10.10;99.90
25933;DHT22;13731;51.166;4.474;2023-02-01T13:48:33;10.10;99.90
25933;DHT22;13731;51.166;4.474;2023-02-01T13:51:02;10.20;99.90
25933;DHT22;13731;51.166;4.474;2023-02-01T13:53:36;10.30;99.90
25933;DHT22;13731;51.166;4.474;2023-02-01T13:56:24;10.40;99.90
25933;DHT22;13731;51.166;4.474;2023-02-01T13:58:51;10.40;99.90
25933;DHT22;13731;51.166;4.474;2023-02-01T14:04:04;10.40;99.90
25933;DHT22;13731;51.166;4.474;2023-02-01T14:11:52;10.30;99.90
25933;DHT22;13731;51.166;4.474;2023-02-01T14:19:37;10.10;99.90
25933;DHT22;13731;51.166;4.474;2023-02-01T14:24:54;10.10;99.90
25933;DHT22;13731;51.166;4.474;2023-02-01T14:27:27;10.10;99.90
25933;DHT22;13731;51.166;4.474;2023-02-01T14:30:06;10.10;99.90
25933;DHT22;13731;51.166;4.474;2023-02-01T14:32:40;10.20;99.90
25933;DHT22;13731;51.166;4.474;2023-02-01T14:35:28;10.00;99.90
25933;DHT22;13731;51.166;4.474;2023-02-01T14:37:59;10.00;1.00
25933;DHT22;13731;51.166;4.474;2023-02-01T14:40:28;9.90;1.00
25933;DHT22;13731;51.166;4.474;2023-02-01T14:42:55;9.90;1.00
25933;DHT22;13731;51.166;4.474;2023-02-01T14:47:55;9.90;1.00
25933;DHT22;13731;51.166;4.474;2023-02-01T14:50:42;9.90;1.00
25933;DHT22;13731;51.166;4.474;2023-02-01T15:01:05;9.80;1.00
25933;DHT22;13731;51.166;4.474;2023-02-01T15:06:12;9.80;1.00
25933;DHT22;13731;51.166;4.474;2023-02-01T15:08:41;9.70;1.00
25933;DHT22;13731;51.166;4.474;2023-02-01T15:11:14;9.70;1.00
25933;DHT22;13731;51.166;4.474;2023-02-01T15:13:40;9.80;1.00
25933;DHT22;13731;51.166;4.474;2023-02-01T15:16:14;9.70;1.00
25933;DHT22;13731;51.166;4.474;2023-02-01T15:18:41;9.80;1.00
25933;DHT22;13731;51.166;4.474;2023-02-01T15:21:16;9.80;1.00
25933;DHT22;13731;51.166;4.474;2023-02-01T15:23:42;9.60;1.00
25933;DHT22;13731;51.166;4.474;2023-02-01T15:26:08;9.50;9.60
25933;DHT22;13731;51.166;4.474;2023-02-01T15:28:34;9.40;99.90
25933;DHT22;13731;51.166;4.474;2023-02-01T15:31:04;9.60;26.60
25933;DHT22;13731;51.166;4.474;2023-02-01T15:33:31;9.80;1.00
25933;DHT22;13731;51.166;4.474;2023-02-01T15:38:37;9.70;1.00
25933;DHT22;13731;51.166;4.474;2023-02-01T15:43:35;9.50;99.90
25933;DHT22;13731;51.166;4.474;2023-02-01T15:46:06;9.50;99.90
25933;DHT22;13731;51.166;4.474;2023-02-01T15:48:47;9.50;99.90
25933;DHT22;13731;51.166;4.474;2023-02-01T15:51:32;9.50;99.90
25933;DHT22;13731;51.166;4.474;2023-02-01T15:54:07;9.60;99.90
25933;DHT22;13731;51.166;4.474;2023-02-01T15:56:40;9.50;99.90
25933;DHT22;13731;51.166;4.474;2023-02-01T15:59:16;9.50;99.90
25933;DHT22;13731;51.166;4.474;2023-02-01T16:01:42;9.50;99.90
25933;DHT22;13731;51.166;4.474;2023-02-01T16:04:27;9.50;99.90
25933;DHT22;13731;51.166;4.474;2023-02-01T16:06:57;9.60;99.90
25933;DHT22;13731;51.166;4.474;2023-02-01T16:09:38;9.60;99.90
25933;DHT22;13731;51.166;4.474;2023-02-01T16:15:05;9.70;99.90
25933;DHT22;13731;51.166;4.474;2023-02-01T16:17:31;9.60;99.90
25933;DHT22;13731;51.166;4.474;2023-02-01T16:19:57;9.50;1.00
25933;DHT22;13731;51.166;4.474;2023-02-01T16:22:23;9.50;1.00
25933;DHT22;13731;51.166;4.474;2023-02-01T16:24:50;9.50;1.00
25933;DHT22;13731;51.166;4.474;2023-02-01T16:27:16;9.30;1.00
25933;DHT22;13731;51.166;4.474;2023-02-01T16:29:42;9.30;1.00
25933;DHT22;13731;51.166;4.474;2023-02-01T16:32:18;9.40;1.00
25933;DHT22;13731;51.166;4.474;2023-02-01T16:34:46;9.30;2.50
25933;DHT22;13731;51.166;4.474;2023-02-01T16:37:16;9.40;1.00
25933;DHT22;13731;51.166;4.474;2023-02-01T16:39:42;9.40;1.00
25933;DHT22;13731;51.166;4.474;2023-02-01T16:42:12;9.40;1.00
25933;DHT22;13731;51.166;4.474;2023-02-01T16:44:39;9.50;1.00
25933;DHT22;13731;51.166;4.474;2023-02-01T16:47:21;9.50;1.00
25933;DHT22;13731;51.166;4.474;2023-02-01T16:49:47;9.40;1.00
25933;DHT22;13731;51.166;4.474;2023-02-01T16:52:17;9.40;1.00
25933;DHT22;13731;51.166;4.474;2023-02-01T16:54:44;9.50;1.00
25933;DHT22;13731;51.166;4.474;2023-02-01T16:57:15;9.50;1.00
25933;DHT22;13731;51.166;4.474;2023-02-01T16:59:42;9.40;1.00
25933;DHT22;13731;51.166;4.474;2023-02-01T17:02:13;9.30;64.40
25933;DHT22;13731;51.166;4.474;2023-02-01T17:04:39;9.20;99.90
25933;DHT22;13731;51.166;4.474;2023-02-01T17:07:06;9.30;99.90
25933;DHT22;13731;51.166;4.474;2023-02-01T17:09:38;9.30;99.90
25933;DHT22;13731;51.166;4.474;2023-02-01T17:12:04;9.20;99.90
25933;DHT22;13731;51.166;4.474;2023-02-01T17:14:35;9.30;99.90
25933;DHT22;13731;51.166;4.474;2023-02-01T17:17:04;9.30;99.90
25933;DHT22;13731;51.166;4.474;2023-02-01T17:19:32;9.30;99.90
25933;DHT22;13731;51.166;4.474;2023-02-01T17:21:58;9.40;99.90
25933;DHT22;13731;51.166;4.474;2023-02-01T17:24:31;9.30;99.90
25933;DHT22;13731;51.166;4.474;2023-02-01T17:26:57;9.30;99.90
25933;DHT22;13731;51.166;4.474;2023-02-01T17:29:23;9.30;99.90
25933;DHT22;13731;51.166;4.474;2023-02-01T17:31:52;9.20;99.90
25933;DHT22;13731;51.166;4.474;2023-02-01T17:34:20;9.30;99.90
25933;DHT22;13731;51.166;4.474;2023-02-01T17:36:47;9.30;99.90
25933;DHT22;13731;51.166;4.474;2023-02-01T17:39:14;9.30;99.90
25933;DHT22;13731;51.166;4.474;2023-02-01T17:42:01;9.20;99.90
25933;DHT22;13731;51.166;4.474;2023-02-01T17:44:27;9.40;88.80
25933;DHT22;13731;51.166;4.474;2023-02-01T17:46:53;9.30;99.90
25933;DHT22;13731;51.166;4.474;2023-02-01T17:49:22;9.20;99.90
25933;DHT22;13731;51.166;4.474;2023-02-01T17:51:48;9.30;99.90
25933;DHT22;13731;51.166;4.474;2023-02-01T17:54:15;9.20;99.90
25933;DHT22;13731;51.166;4.474;2023-02-01T17:56:42;9.20;1.00
25933;DHT22;13731;51.166;4.474;2023-02-01T17:59:08;9.20;1.00
25933;DHT22;13731;51.166;4.474;2023-02-01T18:01:36;9.30;99.90
25933;DHT22;13731;51.166;4.474;2023-02-01T18:04:02;9.30;99.90
25933;DHT22;13731;51.166;4.474;2023-02-01T18:06:32;9.20;1.00
25933;DHT22;13731;51.166;4.474;2023-02-01T18:08:58;9.20;1.00
25933;DHT22;13731;51.166;4.474;2023-02-01T18:11:24;9.10;50.60
25933;DHT22;13731;51.166;4.474;2023-02-01T18:13:52;9.10;99.90
25933;DHT22;13731;51.166;4.474;2023-02-01T18:16:23;9.10;99.90
25933;DHT22;13731;51.166;4.474;2023-02-01T18:18:50;9.30;99.90
25933;DHT22;13731;51.166;4.474;2023-02-01T18:21:17;9.20;99.90
25933;DHT22;13731;51.166;4.474;2023-02-01T18:23:44;9.20;99.90
25933;DHT22;13731;51.166;4.474;2023-02-01T18:26:11;9.20;99.90
25933;DHT22;13731;51.166;4.474;2023-02-01T18:28:38;9.20;99.90
25933;DHT22;13731;51.166;4.474;2023-02-01T18:31:04;9.10;1.00
25933;DHT22;13731;51.166;4.474;2023-02-01T18:33:31;9.20;99.90
25933;DHT22;13731;51.166;4.474;2023-02-01T18:35:57;9.10;1.00
25933;DHT22;13731;51.166;4.474;2023-02-01T18:38:23;9.20;1.00
25933;DHT22;13731;51.166;4.474;2023-02-01T18:40:53;9.20;99.90